createdAt,value
2019-04-27T00:00:35.907Z,36.77
2019-04-27T00:03:14.764Z,34.80
2019-04-27T00:06:08.527Z,36.33
2019-04-27T00:08:48.651Z,37.25
2019-04-27T00:11:24.866Z,35.30
2019-04-27T00:13:56.076Z,36.48
2019-04-27T00:16:33.826Z,36.23
2019-04-27T00:19:23.235Z,36.48
2019-04-27T00:22:00.730Z,36.88
2019-04-27T00:24:31.781Z,35.30
2019-04-27T00:27:03.266Z,34.85
2019-04-27T00:29:33.937Z,35.63
2019-04-27T00:32:05.402Z,35.75
2019-04-27T00:34:36.769Z,36.28
2019-04-27T00:37:25.314Z,35.58
2019-04-27T00:40:06.787Z,35.85
2019-04-27T00:42:39.188Z,36.63
2019-04-27T00:45:13.546Z,35.67
2019-04-27T00:47:56.409Z,35.65
2019-04-27T00:50:17.290Z,36.17
2019-04-27T00:52:48.121Z,38.63
2019-04-27T00:55:19.268Z,37.40
2019-04-27T00:58:00.649Z,34.30
2019-04-27T01:00:39.677Z,35.35
2019-04-27T01:03:13.945Z,35.40
2019-04-27T01:05:44.728Z,38.75
2019-04-27T01:08:18.052Z,36.28
2019-04-27T01:10:48.548Z,37.90
2019-04-27T01:13:19.718Z,36.73
2019-04-27T01:15:54.151Z,40.78
2019-04-27T01:18:26.523Z,38.08
2019-04-27T01:20:59.086Z,38.63
2019-04-27T01:23:29.683Z,38.28
2019-04-27T01:26:18.748Z,37.80
2019-04-27T01:28:51.993Z,37.90
2019-04-27T01:31:24.711Z,37.00
2019-04-27T01:33:55.444Z,37.53
2019-04-27T01:36:26.508Z,36.70
2019-04-27T01:38:59.516Z,37.67
2019-04-27T01:41:32.253Z,36.00
2019-04-27T01:44:03.224Z,34.98
2019-04-27T01:46:33.854Z,36.68
2019-04-27T01:49:06.899Z,33.20
2019-04-27T01:51:39.154Z,34.55
2019-04-27T01:54:11.244Z,35.15
2019-04-27T01:56:42.995Z,35.38
2019-04-27T01:59:13.600Z,36.30
2019-04-27T02:02:02.692Z,34.53
2019-04-27T02:04:41.522Z,36.28
2019-04-27T02:07:12.370Z,36.77
2019-04-27T02:09:45.525Z,36.98
2019-04-27T02:12:19.255Z,48.90
2019-04-27T02:14:50.918Z,40.48
2019-04-27T02:17:21.278Z,39.95
2019-04-27T02:19:52.775Z,42.38
2019-04-27T02:22:23.804Z,42.65
2019-04-27T02:24:56.995Z,41.75
2019-04-27T02:27:31.930Z,42.10
2019-04-27T02:30:14.673Z,42.67
2019-04-27T02:32:50.498Z,42.38
2019-04-27T02:35:21.132Z,43.28
2019-04-27T02:37:51.964Z,43.55
2019-04-27T02:40:50.451Z,44.53
2019-04-27T02:43:23.423Z,43.70
2019-04-27T02:45:54.449Z,46.10
2019-04-27T02:48:26.023Z,45.83
2019-04-27T02:50:59.909Z,46.08
2019-04-27T02:53:49.808Z,46.73
2019-04-27T02:56:21.460Z,48.50
2019-04-27T02:58:53.165Z,47.03
2019-04-27T03:01:25.688Z,47.00
2019-04-27T03:04:00.325Z,49.38
2019-04-27T03:06:31.766Z,48.58
2019-04-27T03:09:02.469Z,49.63
2019-04-27T03:11:33.432Z,48.58
2019-04-27T03:14:34.873Z,49.38
2019-04-27T03:16:56.680Z,49.85
2019-04-27T03:19:39.870Z,54.80
2019-04-27T03:22:15.192Z,52.80
2019-04-27T03:25:05.868Z,50.88
2019-04-27T03:27:45.001Z,50.30
2019-04-27T03:30:22.445Z,51.70
2019-04-27T03:32:56.623Z,62.73
2019-04-27T03:35:24.788Z,56.33
2019-04-27T03:37:56.102Z,56.55
2019-04-27T03:40:30.476Z,54.73
2019-04-27T03:43:02.136Z,54.73
2019-04-27T03:45:34.771Z,52.35
2019-04-27T03:48:05.619Z,55.33
2019-04-27T03:50:39.794Z,54.13
2019-04-27T03:53:20.552Z,55.85
2019-04-27T03:56:12.514Z,55.45
2019-04-27T03:58:49.562Z,53.98
2019-04-27T04:01:22.786Z,54.15
2019-04-27T04:03:53.830Z,52.38
2019-04-27T04:06:24.731Z,50.52
2019-04-27T04:08:55.600Z,48.75
2019-04-27T04:11:31.488Z,51.77
2019-04-27T04:14:06.656Z,52.55
2019-04-27T04:16:42.131Z,52.55
2019-04-27T04:19:13.688Z,51.85
2019-04-27T04:21:44.790Z,52.83
2019-04-27T04:24:16.189Z,57.45
2019-04-27T04:26:50.004Z,48.17
2019-04-27T04:31:52.773Z,51.53
2019-04-27T04:34:24.120Z,49.08
2019-04-27T04:36:54.866Z,57.35
2019-04-27T04:39:29.690Z,50.30
2019-04-27T04:42:10.240Z,45.55
2019-04-27T04:44:50.019Z,46.40
2019-04-27T04:47:27.613Z,43.65
2019-04-27T04:50:08.560Z,48.30
2019-04-27T04:52:31.294Z,43.90
2019-04-27T04:55:02.621Z,45.78
2019-04-27T04:57:33.899Z,43.98
2019-04-27T05:00:09.693Z,41.28
2019-04-27T05:02:41.661Z,41.00
2019-04-27T05:05:12.382Z,39.10
2019-04-27T05:07:43.340Z,39.33
2019-04-27T05:10:18.829Z,40.50
2019-04-27T05:15:21.150Z,34.03
2019-04-27T05:17:52.158Z,33.75
2019-04-27T05:20:43.253Z,32.10
2019-04-27T05:23:14.288Z,28.83
2019-04-27T05:25:45.221Z,33.35
2019-04-27T05:28:18.741Z,28.95
2019-04-27T05:30:49.451Z,35.23
2019-04-27T05:33:21.341Z,30.40
2019-04-27T05:35:52.466Z,28.25
2019-04-27T05:38:24.931Z,29.02
2019-04-27T05:40:58.201Z,30.62
2019-04-27T05:43:33.559Z,34.73
2019-04-27T05:46:23.548Z,32.08
2019-04-27T05:48:54.992Z,38.80
2019-04-27T05:51:25.649Z,37.63
2019-04-27T05:53:58.724Z,36.73
2019-04-27T05:56:29.354Z,38.20
2019-04-27T05:59:00.992Z,42.73
2019-04-27T06:01:31.835Z,30.00
2019-04-27T06:04:02.356Z,27.98
2019-04-27T06:06:35.347Z,29.65
2019-04-27T06:09:09.426Z,27.15
2019-04-27T06:14:10.609Z,6.60
2019-04-27T06:16:43.622Z,7.00
2019-04-27T06:19:14.432Z,5.03
2019-04-27T06:21:45.683Z,5.80
2019-04-27T06:24:18.955Z,5.47
2019-04-27T06:26:49.987Z,5.73
2019-04-27T06:29:20.740Z,5.70
2019-04-27T06:31:51.679Z,6.17
2019-04-27T06:34:24.151Z,6.25
2019-04-27T06:36:54.750Z,7.53
2019-04-27T06:39:27.393Z,7.12
2019-04-27T06:41:59.047Z,7.62
2019-04-27T06:44:30.866Z,7.53
2019-04-27T06:47:01.632Z,8.03
2019-04-27T06:49:33.457Z,7.62
2019-04-27T06:52:06.329Z,7.65
2019-04-27T06:54:36.761Z,7.12
2019-04-27T06:57:09.209Z,7.30
2019-04-27T06:59:41.317Z,7.47
2019-04-27T07:02:13.879Z,7.45
2019-04-27T07:04:46.149Z,7.33
2019-04-27T07:07:19.382Z,6.30
2019-04-27T07:09:50.433Z,6.70
2019-04-27T07:12:22.161Z,7.58
2019-04-27T07:14:55.154Z,7.28
2019-04-27T07:17:28.833Z,7.70
2019-04-27T07:22:30.896Z,7.70
2019-04-27T07:25:02.250Z,8.88
2019-04-27T07:27:33.178Z,8.08
2019-04-27T07:30:06.164Z,8.00
2019-04-27T07:32:36.601Z,8.10
2019-04-27T07:35:09.827Z,8.45
2019-04-27T07:37:40.533Z,8.73
2019-04-27T07:40:13.940Z,8.50
2019-04-27T07:42:46.323Z,8.43
2019-04-27T07:45:19.564Z,7.85
2019-04-27T07:47:53.695Z,7.08
2019-04-27T07:50:26.158Z,7.05
2019-04-27T07:52:58.681Z,6.65
2019-04-27T07:55:31.545Z,6.83
2019-04-27T07:58:05.069Z,7.35
2019-04-27T08:00:35.647Z,6.65
2019-04-27T08:03:10.044Z,7.37
2019-04-27T08:05:40.795Z,6.85
2019-04-27T08:08:13.479Z,7.83
2019-04-27T08:10:44.177Z,7.55
2019-04-27T08:13:16.197Z,8.05
2019-04-27T08:15:49.470Z,6.92
2019-04-27T08:18:20.085Z,8.18
2019-04-27T08:20:51.369Z,8.53
2019-04-27T08:23:22.269Z,9.08
2019-04-27T08:25:54.235Z,9.73
2019-04-27T08:28:28.876Z,9.78
2019-04-27T08:31:08.797Z,11.15
2019-04-27T08:33:39.740Z,11.20
2019-04-27T08:36:12.187Z,10.85
2019-04-27T08:38:45.197Z,10.80
2019-04-27T08:41:16.245Z,10.43
2019-04-27T08:43:48.792Z,11.50
2019-04-27T08:46:19.656Z,10.38
2019-04-27T08:48:50.821Z,10.70
2019-04-27T08:51:21.455Z,10.72
2019-04-27T08:53:53.894Z,10.28
2019-04-27T08:56:24.678Z,10.40
2019-04-27T08:58:56.634Z,10.45
2019-04-27T09:01:27.420Z,11.08
2019-04-27T09:03:59.294Z,10.93
2019-04-27T09:06:31.202Z,10.20
2019-04-27T09:09:04.153Z,10.50
2019-04-27T09:11:37.129Z,9.88
2019-04-27T09:14:09.759Z,10.88
2019-04-27T09:17:02.974Z,10.18
2019-04-27T09:19:45.338Z,9.90
2019-04-27T09:22:16.918Z,11.30
2019-04-27T09:24:53.891Z,11.12
2019-04-27T09:27:26.052Z,11.88
2019-04-27T09:29:59.045Z,11.12
2019-04-27T09:32:30.793Z,11.45
2019-04-27T09:35:03.676Z,12.05
2019-04-27T09:37:36.497Z,11.33
2019-04-27T09:40:08.234Z,11.53
2019-04-27T09:42:40.053Z,11.38
2019-04-27T09:45:11.418Z,11.63
2019-04-27T09:47:42.048Z,10.88
2019-04-27T09:50:13.397Z,12.78
2019-04-27T09:52:45.937Z,11.78
2019-04-27T09:55:17.420Z,12.20
2019-04-27T09:57:48.457Z,12.43
2019-04-27T10:00:23.857Z,12.78
2019-04-27T10:02:56.103Z,12.20
2019-04-27T10:05:27.112Z,11.97
2019-04-27T10:07:58.048Z,12.15
2019-04-27T10:10:30.518Z,12.43
2019-04-27T10:13:04.114Z,11.90
2019-04-27T10:15:35.652Z,12.05
2019-04-27T10:18:07.666Z,11.38
2019-04-27T10:20:41.037Z,12.10
2019-04-27T10:23:12.575Z,11.55
2019-04-27T10:25:46.303Z,11.75
2019-04-27T10:28:18.142Z,12.28
2019-04-27T10:30:49.077Z,11.78
2019-04-27T10:33:20.630Z,12.15
2019-04-27T10:35:53.311Z,12.80
2019-04-27T10:38:26.514Z,11.55
2019-04-27T10:40:57.438Z,11.20
2019-04-27T10:43:27.961Z,11.78
2019-04-27T10:46:01.049Z,11.60
2019-04-27T10:48:33.120Z,12.03
2019-04-27T10:51:07.295Z,12.10
2019-04-27T10:53:39.594Z,11.53
2019-04-27T10:56:10.437Z,11.85
2019-04-27T10:58:41.368Z,11.30
2019-04-27T11:01:13.430Z,12.05
2019-04-27T11:04:02.598Z,11.57
2019-04-27T11:06:37.903Z,12.58
2019-04-27T11:09:11.414Z,12.25
2019-04-27T11:11:41.960Z,12.63
2019-04-27T11:14:12.800Z,13.85
2019-04-27T11:16:46.051Z,13.35
2019-04-27T11:19:17.020Z,13.85
2019-04-27T11:21:48.040Z,12.98
2019-04-27T11:24:19.108Z,14.10
2019-04-27T11:26:49.826Z,13.08
2019-04-27T11:29:21.195Z,15.05
2019-04-27T11:31:52.695Z,13.95
2019-04-27T11:34:46.993Z,13.78
2019-04-27T11:37:19.899Z,14.53
2019-04-27T11:39:52.349Z,14.07
2019-04-27T11:42:23.189Z,14.47
2019-04-27T11:44:57.954Z,14.78
2019-04-27T11:47:27.475Z,14.58
2019-04-27T11:49:58.586Z,14.60
2019-04-27T11:52:29.416Z,14.18
2019-04-27T11:55:00.361Z,13.45
2019-04-27T11:57:31.919Z,13.15
2019-04-27T12:00:05.202Z,12.63
2019-04-27T12:02:36.651Z,11.65
2019-04-27T12:05:10.443Z,11.60
2019-04-27T12:07:41.087Z,11.95
2019-04-27T12:10:12.537Z,11.57
2019-04-27T12:12:43.573Z,11.33
2019-04-27T12:15:16.148Z,10.55
2019-04-27T12:17:46.828Z,10.68
2019-04-27T12:20:19.148Z,10.78
2019-04-27T12:22:50.188Z,11.40
2019-04-27T12:25:21.124Z,10.50
2019-04-27T12:27:53.194Z,10.80
2019-04-27T12:30:28.611Z,11.12
2019-04-27T12:32:59.150Z,11.03
2019-04-27T12:35:32.464Z,10.75
2019-04-27T12:38:05.815Z,11.25
2019-04-27T12:40:36.697Z,10.88
2019-04-27T12:43:08.336Z,11.35
2019-04-27T12:45:42.015Z,11.40
2019-04-27T12:48:13.266Z,11.50
2019-04-27T12:50:43.918Z,12.47
2019-04-27T12:53:47.721Z,11.73
2019-04-27T12:56:07.494Z,10.50
2019-04-27T12:58:56.470Z,10.70
2019-04-27T13:01:29.021Z,10.80
2019-04-27T13:03:59.771Z,11.63
2019-04-27T13:06:30.606Z,10.85
2019-04-27T13:09:02.158Z,10.58
2019-04-27T13:11:32.693Z,10.95
2019-04-27T13:14:06.102Z,11.20
2019-04-27T13:16:36.816Z,10.28
2019-04-27T13:19:09.180Z,10.48
2019-04-27T13:21:40.164Z,11.47
2019-04-27T13:24:12.178Z,10.48
2019-04-27T13:26:43.117Z,11.30
2019-04-27T13:29:13.747Z,10.53
2019-04-27T13:31:45.570Z,10.55
2019-04-27T13:34:17.928Z,10.80
2019-04-27T13:36:48.606Z,10.30
2019-04-27T13:39:20.571Z,11.18
2019-04-27T13:41:51.510Z,10.30
2019-04-27T13:44:22.064Z,11.25
2019-04-27T13:47:11.295Z,9.20
2019-04-27T13:49:46.725Z,10.03
2019-04-27T13:52:19.216Z,10.43
2019-04-27T13:54:50.156Z,9.60
2019-04-27T13:57:21.622Z,9.70
2019-04-27T13:59:52.433Z,9.93
2019-04-27T14:02:24.268Z,10.08
2019-04-27T14:04:56.356Z,10.48
2019-04-27T14:07:27.949Z,9.95
2019-04-27T14:10:00.020Z,10.05
2019-04-27T14:12:30.912Z,9.88
2019-04-27T14:15:01.821Z,10.53
2019-04-27T14:17:33.308Z,9.40
2019-04-27T14:20:04.850Z,9.98
2019-04-27T14:22:35.484Z,9.53
2019-04-27T14:25:08.709Z,9.15
2019-04-27T14:27:40.833Z,9.25
2019-04-27T14:30:13.767Z,9.78
2019-04-27T14:32:44.627Z,9.23
2019-04-27T14:35:15.702Z,10.25
2019-04-27T14:37:48.433Z,10.85
2019-04-27T14:40:19.214Z,10.47
2019-04-27T14:42:52.117Z,9.65
2019-04-27T14:47:53.767Z,10.40
2019-04-27T14:50:24.294Z,10.05
2019-04-27T14:52:55.236Z,11.40
2019-04-27T14:55:26.166Z,10.00
2019-04-27T14:57:59.188Z,10.48
2019-04-27T15:00:30.709Z,10.48
2019-04-27T15:03:01.842Z,10.78
2019-04-27T15:05:33.191Z,11.12
2019-04-27T15:08:06.476Z,10.72
2019-04-27T15:10:36.400Z,10.60
2019-04-27T15:13:08.360Z,11.08
2019-04-27T15:15:40.127Z,10.30
2019-04-27T15:18:11.258Z,11.08
2019-04-27T15:20:46.298Z,11.43
2019-04-27T15:23:20.057Z,10.93
2019-04-27T15:25:52.386Z,10.60
2019-04-27T15:28:24.846Z,10.93
2019-04-27T15:30:57.434Z,11.20
2019-04-27T15:33:50.505Z,11.43
2019-04-27T15:36:37.182Z,11.50
2019-04-27T15:39:30.479Z,11.68
2019-04-27T15:42:08.140Z,12.55
2019-04-27T15:44:40.564Z,12.07
2019-04-27T15:47:11.958Z,11.65
2019-04-27T15:49:49.882Z,12.47
2019-04-27T15:52:15.058Z,12.58
2019-04-27T15:54:48.054Z,12.10
2019-04-27T15:57:20.886Z,11.80
2019-04-27T15:59:51.757Z,12.95
2019-04-27T16:02:22.802Z,13.38
2019-04-27T16:04:54.964Z,13.55
2019-04-27T16:07:29.777Z,12.88
2019-04-27T16:10:02.549Z,13.68
2019-04-27T16:12:34.681Z,13.38
2019-04-27T16:15:08.069Z,14.03
2019-04-27T16:17:43.999Z,15.30
2019-04-27T16:20:14.914Z,14.18
2019-04-27T16:22:48.765Z,15.55
2019-04-27T16:25:23.546Z,14.60
2019-04-27T16:27:54.367Z,15.10
2019-04-27T16:30:25.552Z,14.38
2019-04-27T16:32:58.371Z,15.25
2019-04-27T16:35:29.458Z,15.10
2019-04-27T16:38:20.571Z,15.95
2019-04-27T16:40:54.646Z,16.15
2019-04-27T16:43:30.050Z,17.45
2019-04-27T16:46:04.257Z,16.25
2019-04-27T16:48:36.297Z,16.02
2019-04-27T16:51:10.736Z,16.77
2019-04-27T16:53:42.165Z,16.85
2019-04-27T16:56:16.168Z,16.93
2019-04-27T16:58:51.070Z,18.30
2019-04-27T17:01:28.493Z,17.37
2019-04-27T17:03:59.530Z,18.23
2019-04-27T17:06:30.782Z,19.00
2019-04-27T17:09:06.986Z,18.98
2019-04-27T17:11:35.321Z,19.65
2019-04-27T17:14:08.301Z,19.07
2019-04-27T17:16:48.436Z,18.20
2019-04-27T17:19:35.755Z,18.85
2019-04-27T17:22:05.166Z,18.37
2019-04-27T17:24:43.784Z,17.95
2019-04-27T17:27:11.750Z,22.52
2019-04-27T17:29:42.371Z,17.20
2019-04-27T17:32:17.306Z,17.02
2019-04-27T17:34:48.807Z,16.75
2019-04-27T17:37:19.481Z,15.70
2019-04-27T17:39:53.487Z,15.70
2019-04-27T17:42:27.515Z,16.05
2019-04-27T17:44:59.109Z,16.30
2019-04-27T17:47:29.804Z,15.95
2019-04-27T17:50:01.577Z,17.17
2019-04-27T17:52:32.402Z,18.35
2019-04-27T17:55:05.083Z,16.97
2019-04-27T17:57:39.104Z,16.90
2019-04-27T18:00:11.294Z,16.67
2019-04-27T18:02:44.476Z,16.15
2019-04-27T18:05:17.876Z,17.30
2019-04-27T18:07:50.492Z,15.65
2019-04-27T18:10:24.247Z,16.20
2019-04-27T18:12:54.336Z,15.20
2019-04-27T18:15:25.904Z,14.60
2019-04-27T18:17:58.511Z,14.68
2019-04-27T18:20:29.719Z,14.30
2019-04-27T18:23:02.811Z,14.83
2019-04-27T18:25:35.589Z,16.20
2019-04-27T18:28:16.020Z,15.55
2019-04-27T18:30:49.120Z,17.00
2019-04-27T18:33:20.231Z,15.68
2019-04-27T18:35:51.409Z,18.80
2019-04-27T18:38:22.114Z,15.53
2019-04-27T18:40:53.188Z,15.30
2019-04-27T18:43:28.488Z,14.90
2019-04-27T18:46:01.411Z,15.28
2019-04-27T18:48:33.877Z,14.63
2019-04-27T18:51:06.432Z,14.80
2019-04-27T18:53:37.291Z,14.07
2019-04-27T18:56:10.491Z,14.87
2019-04-27T18:58:41.217Z,14.68
2019-04-27T19:01:15.392Z,15.13
2019-04-27T19:03:49.536Z,17.60
2019-04-27T19:06:23.030Z,14.85
2019-04-27T19:08:53.668Z,15.20
2019-04-27T19:11:24.602Z,15.10
2019-04-27T19:13:55.951Z,15.95
2019-04-27T19:16:26.798Z,14.35
2019-04-27T19:18:58.396Z,15.48
2019-04-27T19:21:31.664Z,15.18
2019-04-27T19:24:02.561Z,15.00
2019-04-27T19:26:38.362Z,15.40
2019-04-27T19:29:18.777Z,15.53
2019-04-27T19:31:51.869Z,14.70
2019-04-27T19:34:28.680Z,14.53
2019-04-27T19:36:59.387Z,13.98
2019-04-27T19:39:32.237Z,14.23
2019-04-27T19:42:03.909Z,14.00
2019-04-27T19:44:35.178Z,14.13
2019-04-27T19:47:06.597Z,14.00
2019-04-27T19:49:38.840Z,14.25
2019-04-27T19:52:10.271Z,13.38
2019-04-27T19:54:42.393Z,13.60
2019-04-27T19:57:13.343Z,14.07
2019-04-27T19:59:46.134Z,14.23
2019-04-27T20:02:20.324Z,12.95
2019-04-27T20:04:53.914Z,13.30
2019-04-27T20:07:25.876Z,14.17
2019-04-27T20:10:00.397Z,13.88
2019-04-27T20:12:33.163Z,14.68
2019-04-27T20:15:07.146Z,13.60
2019-04-27T20:17:40.889Z,13.60
2019-04-27T20:22:42.791Z,13.68
2019-04-27T20:25:14.611Z,13.50
2019-04-27T20:27:48.992Z,13.80
2019-04-27T20:30:18.376Z,13.35
2019-04-27T20:32:51.045Z,13.78
2019-04-27T20:35:22.578Z,13.95
2019-04-27T20:37:53.157Z,13.60
2019-04-27T20:40:24.960Z,13.83
2019-04-27T20:42:55.992Z,14.05
2019-04-27T20:45:26.942Z,14.45
2019-04-27T20:47:57.840Z,14.58
2019-04-27T20:50:30.859Z,14.20
2019-04-27T20:53:03.827Z,15.20
2019-04-27T20:55:35.187Z,14.05
2019-04-27T20:58:05.814Z,14.20
2019-04-27T21:00:36.753Z,14.33
2019-04-27T21:03:09.171Z,15.00
2019-04-27T21:05:51.088Z,14.47
2019-04-27T21:08:26.048Z,13.95
2019-04-27T21:10:56.998Z,14.13
2019-04-27T21:13:31.295Z,14.03
2019-04-27T21:16:02.350Z,14.25
2019-04-27T21:18:33.282Z,14.53
2019-04-27T21:21:04.219Z,13.88
2019-04-27T21:23:34.715Z,14.38
2019-04-27T21:26:06.301Z,14.73
2019-04-27T21:28:37.743Z,14.23
2019-04-27T21:31:12.475Z,14.23
2019-04-27T21:33:42.887Z,14.80
2019-04-27T21:36:14.853Z,14.33
2019-04-27T21:38:45.805Z,15.08
2019-04-27T21:41:17.017Z,14.90
2019-04-27T21:43:51.200Z,15.38
2019-04-27T21:46:22.872Z,14.70
2019-04-27T21:48:53.744Z,14.87
2019-04-27T21:51:25.130Z,15.83
2019-04-27T21:54:00.877Z,15.60
2019-04-27T21:56:33.521Z,14.80
2019-04-27T21:59:05.733Z,15.88
2019-04-27T22:01:37.551Z,15.72
2019-04-27T22:04:11.429Z,15.15
2019-04-27T22:06:42.197Z,15.10
2019-04-27T22:09:15.481Z,16.50
2019-04-27T22:11:47.646Z,15.32
2019-04-27T22:14:19.017Z,14.38
2019-04-27T22:16:51.884Z,15.38
2019-04-27T22:19:23.040Z,15.28
2019-04-27T22:21:54.665Z,15.45
2019-04-27T22:24:26.831Z,15.60
2019-04-27T22:26:57.732Z,15.20
2019-04-27T22:29:32.182Z,15.30
2019-04-27T22:32:02.727Z,16.07
2019-04-27T22:34:35.805Z,15.60
2019-04-27T22:37:06.948Z,15.28
2019-04-27T22:39:44.613Z,15.73
2019-04-27T22:42:20.716Z,16.20
2019-04-27T22:44:56.354Z,14.53
2019-04-27T22:47:27.286Z,14.40
2019-04-27T22:49:58.428Z,14.40
2019-04-27T22:52:30.753Z,14.45
2019-04-27T22:55:02.254Z,14.75
2019-04-27T22:57:35.233Z,14.63
2019-04-27T23:00:09.281Z,15.30
2019-04-27T23:02:41.717Z,14.30
2019-04-27T23:05:14.394Z,14.25
2019-04-27T23:07:45.643Z,14.53
2019-04-27T23:10:16.180Z,14.25
2019-04-27T23:12:47.203Z,13.78
2019-04-27T23:15:20.918Z,13.00
2019-04-27T23:17:55.426Z,13.45
2019-04-27T23:20:26.160Z,13.55
2019-04-27T23:22:57.508Z,14.43
2019-04-27T23:25:29.677Z,13.38
2019-04-27T23:28:00.924Z,13.08
2019-04-27T23:30:33.492Z,12.18
2019-04-27T23:33:05.442Z,13.50
2019-04-27T23:35:36.729Z,11.95
2019-04-27T23:38:17.527Z,12.78
2019-04-27T23:40:41.935Z,12.25
2019-04-27T23:43:13.094Z,12.00
2019-04-27T23:45:43.857Z,11.57
2019-04-27T23:48:14.987Z,12.25
2019-04-27T23:50:47.545Z,11.83
2019-04-27T23:53:21.887Z,11.15
2019-04-27T23:55:52.483Z,12.37
2019-04-27T23:58:23.430Z,12.65
